KROA/ROA METAR and TAF weather

Enter ICAO airport designator
Station Type Date Time Source
KROA METAR 2018/12/11 21:54 UTC NOAA

KROA 112154Z 26005KT 10SM CLR 06/M11 A3010 RMK AO2 SLP201 T00561111


Station Type Date Time Source
KROA Decoded METAR 2018/12/11 21:54 UTC NOAA

ROANOKE REGIONAL AIRPORT, VA, United States (KROA) 37-19N 079-58W 362M
Dec 11, 2018 - 04:54 PM EST / 2018.12.11 2154 UTC
Wind: from the W (260 degrees) at 6 MPH (5 KT):0
Visibility: 10 mile(s):0
Sky conditions: clear
Temperature: 42.1 F (5.6 C)
Dew Point: 12.0 F (-11.1 C)
Relative Humidity: 28%
Pressure (altimeter): 30.1 in. Hg (1019 hPa)
ob: KROA 112154Z 26005KT 10SM CLR 06/M11 A3010 RMK AO2 SLP201 T00561111
cycle: 22

Station Type Date Time Source
KROA TAF 2018/12/11 18:27 UTC NOAA

TAF KROA 111723Z 1118/1218 23008KT P6SM SKC
FM120300 VRB04KT P6SM SKC
FM121200 30007KT P6SM BKN250


Example: see airport list